sensor_id;sensor_type;location;lat;lon;timestamp;temperature;humidity
14119;DHT22;7138;49.246;9.100;2023-04-01T00:00:22;9.20;99.90
14119;DHT22;7138;49.246;9.100;2023-04-01T00:02:49;9.10;99.90
14119;DHT22;7138;49.246;9.100;2023-04-01T00:05:15;9.10;99.90
14119;DHT22;7138;49.246;9.100;2023-04-01T00:07:44;9.10;99.90
14119;DHT22;7138;49.246;9.100;2023-04-01T00:10:11;9.10;99.90
14119;DHT22;7138;49.246;9.100;2023-04-01T00:12:40;9.10;99.90
14119;DHT22;7138;49.246;9.100;2023-04-01T00:15:09;9.10;99.90
14119;DHT22;7138;49.246;9.100;2023-04-01T00:17:36;9.10;99.90
14119;DHT22;7138;49.246;9.100;2023-04-01T00:20:03;9.10;99.90
14119;DHT22;7138;49.246;9.100;2023-04-01T00:22:29;9.00;99.90
14119;DHT22;7138;49.246;9.100;2023-04-01T00:24:55;9.10;99.90
14119;DHT22;7138;49.246;9.100;2023-04-01T00:27:21;9.10;99.90
14119;DHT22;7138;49.246;9.100;2023-04-01T00:29:48;9.10;99.90
14119;DHT22;7138;49.246;9.100;2023-04-01T00:32:15;9.10;99.90
14119;DHT22;7138;49.246;9.100;2023-04-01T00:34:41;9.20;99.90
14119;DHT22;7138;49.246;9.100;2023-04-01T00:37:07;9.20;99.90
14119;DHT22;7138;49.246;9.100;2023-04-01T00:39:34;9.30;99.90
14119;DHT22;7138;49.246;9.100;2023-04-01T00:42:02;9.20;99.90
14119;DHT22;7138;49.246;9.100;2023-04-01T00:44:33;9.20;99.90
14119;DHT22;7138;49.246;9.100;2023-04-01T00:47:01;9.10;99.90
14119;DHT22;7138;49.246;9.100;2023-04-01T00:49:29;9.10;99.90
14119;DHT22;7138;49.246;9.100;2023-04-01T00:52:00;9.10;99.90
14119;DHT22;7138;49.246;9.100;2023-04-01T00:54:30;9.10;99.90
14119;DHT22;7138;49.246;9.100;2023-04-01T00:57:00;9.00;99.90
14119;DHT22;7138;49.246;9.100;2023-04-01T00:59:31;9.10;99.90
14119;DHT22;7138;49.246;9.100;2023-04-01T01:02:00;9.10;99.90
14119;DHT22;7138;49.246;9.100;2023-04-01T01:04:29;9.10;99.90
14119;DHT22;7138;49.246;9.100;2023-04-01T01:07:03;9.10;99.90
14119;DHT22;7138;49.246;9.100;2023-04-01T01:09:43;9.10;99.90
14119;DHT22;7138;49.246;9.100;2023-04-01T01:12:19;9.00;99.90
14119;DHT22;7138;49.246;9.100;2023-04-01T01:14:53;9.10;99.90
14119;DHT22;7138;49.246;9.100;2023-04-01T01:17:38;9.00;99.90
14119;DHT22;7138;49.246;9.100;2023-04-01T01:20:44;9.10;99.90
14119;DHT22;7138;49.246;9.100;2023-04-01T01:29:53;9.00;99.90
14119;DHT22;7138;49.246;9.100;2023-04-01T01:32:38;9.00;99.90
14119;DHT22;7138;49.246;9.100;2023-04-01T01:35:31;9.20;99.90
14119;DHT22;7138;49.246;9.100;2023-04-01T01:38:04;9.10;99.90
14119;DHT22;7138;49.246;9.100;2023-04-01T01:40:34;9.20;99.90
14119;DHT22;7138;49.246;9.100;2023-04-01T01:43:05;9.10;99.90
14119;DHT22;7138;49.246;9.100;2023-04-01T01:45:38;9.10;99.90
14119;DHT22;7138;49.246;9.100;2023-04-01T01:48:09;9.00;99.90
14119;DHT22;7138;49.246;9.100;2023-04-01T01:50:38;9.00;99.90
14119;DHT22;7138;49.246;9.100;2023-04-01T01:53:09;8.90;99.90
14119;DHT22;7138;49.246;9.100;2023-04-01T01:55:38;8.90;99.90
14119;DHT22;7138;49.246;9.100;2023-04-01T01:58:09;9.00;99.90
14119;DHT22;7138;49.246;9.100;2023-04-01T02:00:39;9.10;99.90
14119;DHT22;7138;49.246;9.100;2023-04-01T02:03:08;9.10;99.90
14119;DHT22;7138;49.246;9.100;2023-04-01T02:05:37;9.20;99.90
14119;DHT22;7138;49.246;9.100;2023-04-01T02:08:07;9.20;99.90
14119;DHT22;7138;49.246;9.100;2023-04-01T02:10:41;9.20;99.90
14119;DHT22;7138;49.246;9.100;2023-04-01T02:13:15;9.20;99.90
14119;DHT22;7138;49.246;9.100;2023-04-01T02:15:47;9.30;99.90
14119;DHT22;7138;49.246;9.100;2023-04-01T02:18:17;9.20;99.90
14119;DHT22;7138;49.246;9.100;2023-04-01T02:20:46;9.20;99.90
14119;DHT22;7138;49.246;9.100;2023-04-01T02:23:14;9.20;99.90
14119;DHT22;7138;49.246;9.100;2023-04-01T02:25:41;9.20;99.90
14119;DHT22;7138;49.246;9.100;2023-04-01T02:28:10;9.10;99.90
14119;DHT22;7138;49.246;9.100;2023-04-01T02:30:42;9.10;99.90
14119;DHT22;7138;49.246;9.100;2023-04-01T02:33:10;9.10;99.90
14119;DHT22;7138;49.246;9.100;2023-04-01T02:35:37;9.10;99.90
14119;DHT22;7138;49.246;9.100;2023-04-01T02:38:04;9.10;99.90
14119;DHT22;7138;49.246;9.100;2023-04-01T02:40:41;9.00;99.90
14119;DHT22;7138;49.246;9.100;2023-04-01T02:43:09;9.00;99.90
14119;DHT22;7138;49.246;9.100;2023-04-01T02:45:35;9.10;99.90
14119;DHT22;7138;49.246;9.100;2023-04-01T02:48:01;9.00;99.90
14119;DHT22;7138;49.246;9.100;2023-04-01T02:50:27;9.00;99.90
14119;DHT22;7138;49.246;9.100;2023-04-01T02:52:53;9.00;99.90
14119;DHT22;7138;49.246;9.100;2023-04-01T02:55:20;9.00;99.90
14119;DHT22;7138;49.246;9.100;2023-04-01T02:57:46;9.00;99.90
14119;DHT22;7138;49.246;9.100;2023-04-01T03:00:13;9.00;99.90
14119;DHT22;7138;49.246;9.100;2023-04-01T03:02:39;9.00;99.90
14119;DHT22;7138;49.246;9.100;2023-04-01T03:05:06;9.00;99.90
14119;DHT22;7138;49.246;9.100;2023-04-01T03:07:32;9.00;99.90
14119;DHT22;7138;49.246;9.100;2023-04-01T03:09:58;8.90;99.90
14119;DHT22;7138;49.246;9.100;2023-04-01T03:12:25;9.00;99.90
14119;DHT22;7138;49.246;9.100;2023-04-01T03:14:51;9.10;99.90
14119;DHT22;7138;49.246;9.100;2023-04-01T03:17:17;9.10;99.90
14119;DHT22;7138;49.246;9.100;2023-04-01T03:19:43;9.00;99.90
14119;DHT22;7138;49.246;9.100;2023-04-01T03:22:10;9.10;99.90
14119;DHT22;7138;49.246;9.100;2023-04-01T03:24:36;9.10;99.90
14119;DHT22;7138;49.246;9.100;2023-04-01T03:27:02;9.10;99.90
14119;DHT22;7138;49.246;9.100;2023-04-01T03:29:29;9.10;99.90
14119;DHT22;7138;49.246;9.100;2023-04-01T03:31:55;9.10;99.90
14119;DHT22;7138;49.246;9.100;2023-04-01T03:34:23;9.10;99.90
14119;DHT22;7138;49.246;9.100;2023-04-01T03:36:49;9.20;99.90
14119;DHT22;7138;49.246;9.100;2023-04-01T03:39:16;9.10;99.90
14119;DHT22;7138;49.246;9.100;2023-04-01T03:41:44;9.20;99.90
14119;DHT22;7138;49.246;9.100;2023-04-01T03:44:10;9.20;99.90
14119;DHT22;7138;49.246;9.100;2023-04-01T03:46:37;9.10;99.90
14119;DHT22;7138;49.246;9.100;2023-04-01T03:49:06;9.30;99.90
14119;DHT22;7138;49.246;9.100;2023-04-01T03:51:37;9.20;99.90
14119;DHT22;7138;49.246;9.100;2023-04-01T03:54:03;9.20;99.90
14119;DHT22;7138;49.246;9.100;2023-04-01T03:56:30;9.20;99.90
14119;DHT22;7138;49.246;9.100;2023-04-01T03:58:56;9.20;99.90
14119;DHT22;7138;49.246;9.100;2023-04-01T04:01:22;9.10;99.90
14119;DHT22;7138;49.246;9.100;2023-04-01T04:03:49;9.10;99.90
14119;DHT22;7138;49.246;9.100;2023-04-01T04:06:17;9.10;99.90
14119;DHT22;7138;49.246;9.100;2023-04-01T04:08:44;9.10;99.90
14119;DHT22;7138;49.246;9.100;2023-04-01T04:11:10;9.10;99.90
14119;DHT22;7138;49.246;9.100;2023-04-01T04:13:36;9.00;99.90
14119;DHT22;7138;49.246;9.100;2023-04-01T04:16:02;9.00;99.90
14119;DHT22;7138;49.246;9.100;2023-04-01T04:18:28;9.10;99.90
14119;DHT22;7138;49.246;9.100;2023-04-01T04:20:56;9.00;99.90
14119;DHT22;7138;49.246;9.100;2023-04-01T04:23:22;8.90;99.90
14119;DHT22;7138;49.246;9.100;2023-04-01T04:25:55;8.80;99.90
14119;DHT22;7138;49.246;9.100;2023-04-01T04:28:22;8.80;99.90
14119;DHT22;7138;49.246;9.100;2023-04-01T04:30:48;8.80;99.90
14119;DHT22;7138;49.246;9.100;2023-04-01T04:33:14;8.80;99.90
14119;DHT22;7138;49.246;9.100;2023-04-01T04:35:40;8.80;99.90
14119;DHT22;7138;49.246;9.100;2023-04-01T04:38:08;8.80;99.90
14119;DHT22;7138;49.246;9.100;2023-04-01T04:40:35;8.80;99.90
14119;DHT22;7138;49.246;9.100;2023-04-01T04:43:02;8.80;99.90
14119;DHT22;7138;49.246;9.100;2023-04-01T04:45:28;8.80;99.90
14119;DHT22;7138;49.246;9.100;2023-04-01T04:47:54;8.90;99.90
14119;DHT22;7138;49.246;9.100;2023-04-01T04:50:20;8.90;99.90
14119;DHT22;7138;49.246;9.100;2023-04-01T04:52:45;9.00;99.90
14119;DHT22;7138;49.246;9.100;2023-04-01T04:55:13;8.90;99.90
14119;DHT22;7138;49.246;9.100;2023-04-01T04:57:40;9.00;99.90
14119;DHT22;7138;49.246;9.100;2023-04-01T05:00:07;9.00;99.90
14119;DHT22;7138;49.246;9.100;2023-04-01T05:02:36;9.00;99.90
14119;DHT22;7138;49.246;9.100;2023-04-01T05:05:01;9.00;99.90
14119;DHT22;7138;49.246;9.100;2023-04-01T05:07:28;9.10;99.90
14119;DHT22;7138;49.246;9.100;2023-04-01T05:09:53;9.10;99.90
14119;DHT22;7138;49.246;9.100;2023-04-01T05:12:21;9.10;99.90
14119;DHT22;7138;49.246;9.100;2023-04-01T05:14:47;9.10;99.90
14119;DHT22;7138;49.246;9.100;2023-04-01T05:17:13;9.10;99.90
14119;DHT22;7138;49.246;9.100;2023-04-01T05:19:39;9.20;99.90
14119;DHT22;7138;49.246;9.100;2023-04-01T05:22:05;9.20;99.90
14119;DHT22;7138;49.246;9.100;2023-04-01T05:24:33;9.20;99.90
14119;DHT22;7138;49.246;9.100;2023-04-01T05:26:59;9.20;99.90
14119;DHT22;7138;49.246;9.100;2023-04-01T05:29:27;9.30;99.90
14119;DHT22;7138;49.246;9.100;2023-04-01T05:31:54;9.30;99.90
14119;DHT22;7138;49.246;9.100;2023-04-01T05:34:20;9.30;99.90
14119;DHT22;7138;49.246;9.100;2023-04-01T05:36:46;9.30;99.90
14119;DHT22;7138;49.246;9.100;2023-04-01T05:39:12;9.30;99.90
14119;DHT22;7138;49.246;9.100;2023-04-01T05:41:38;9.30;99.90
14119;DHT22;7138;49.246;9.100;2023-04-01T05:44:04;9.20;99.90
14119;DHT22;7138;49.246;9.100;2023-04-01T05:46:32;9.30;99.90
14119;DHT22;7138;49.246;9.100;2023-04-01T05:48:58;9.30;99.90
14119;DHT22;7138;49.246;9.100;2023-04-01T05:51:23;9.30;99.90
14119;DHT22;7138;49.246;9.100;2023-04-01T05:53:49;9.30;99.90
14119;DHT22;7138;49.246;9.100;2023-04-01T05:56:16;9.40;99.90
14119;DHT22;7138;49.246;9.100;2023-04-01T05:58:41;9.40;99.90
14119;DHT22;7138;49.246;9.100;2023-04-01T06:01:10;9.40;99.90
14119;DHT22;7138;49.246;9.100;2023-04-01T06:03:37;9.40;99.90
14119;DHT22;7138;49.246;9.100;2023-04-01T06:06:10;9.40;99.90
14119;DHT22;7138;49.246;9.100;2023-04-01T06:08:40;9.40;99.90
14119;DHT22;7138;49.246;9.100;2023-04-01T06:11:16;9.40;99.90
14119;DHT22;7138;49.246;9.100;2023-04-01T06:14:10;9.40;99.90
14119;DHT22;7138;49.246;9.100;2023-04-01T06:16:51;9.50;99.90
14119;DHT22;7138;49.246;9.100;2023-04-01T06:19:42;9.40;99.90
14119;DHT22;7138;49.246;9.100;2023-04-01T06:22:37;9.40;99.90
14119;DHT22;7138;49.246;9.100;2023-04-01T06:25:37;9.40;99.90
14119;DHT22;7138;49.246;9.100;2023-04-01T06:28:41;9.40;99.90
14119;DHT22;7138;49.246;9.100;2023-04-01T06:31:26;9.50;99.90
14119;DHT22;7138;49.246;9.100;2023-04-01T06:34:23;9.40;99.90
14119;DHT22;7138;49.246;9.100;2023-04-01T06:37:15;9.40;99.90
14119;DHT22;7138;49.246;9.100;2023-04-01T06:40:07;9.30;99.90
14119;DHT22;7138;49.246;9.100;2023-04-01T06:42:54;9.30;99.90
14119;DHT22;7138;49.246;9.100;2023-04-01T06:45:37;9.30;99.90
14119;DHT22;7138;49.246;9.100;2023-04-01T06:48:20;9.20;99.90
14119;DHT22;7138;49.246;9.100;2023-04-01T06:51:04;9.20;99.90
14119;DHT22;7138;49.246;9.100;2023-04-01T06:53:46;9.20;99.90
14119;DHT22;7138;49.246;9.100;2023-04-01T06:56:24;9.20;99.90
14119;DHT22;7138;49.246;9.100;2023-04-01T06:58:54;9.20;99.90
14119;DHT22;7138;49.246;9.100;2023-04-01T07:01:28;9.20;99.90
14119;DHT22;7138;49.246;9.100;2023-04-01T07:04:00;9.20;99.90
14119;DHT22;7138;49.246;9.100;2023-04-01T07:06:35;9.20;99.90
14119;DHT22;7138;49.246;9.100;2023-04-01T07:09:09;9.10;99.90
14119;DHT22;7138;49.246;9.100;2023-04-01T07:11:40;9.10;99.90
14119;DHT22;7138;49.246;9.100;2023-04-01T07:14:13;9.10;99.90
14119;DHT22;7138;49.246;9.100;2023-04-01T07:16:48;9.00;99.90
14119;DHT22;7138;49.246;9.100;2023-04-01T07:19:21;9.00;99.90
14119;DHT22;7138;49.246;9.100;2023-04-01T07:21:55;9.00;99.90
14119;DHT22;7138;49.246;9.100;2023-04-01T07:24:27;8.90;99.90
14119;DHT22;7138;49.246;9.100;2023-04-01T07:26:59;8.80;99.90
14119;DHT22;7138;49.246;9.100;2023-04-01T07:29:26;8.80;99.90
14119;DHT22;7138;49.246;9.100;2023-04-01T07:32:14;8.90;99.90
14119;DHT22;7138;49.246;9.100;2023-04-01T07:35:02;8.90;99.90
14119;DHT22;7138;49.246;9.100;2023-04-01T07:37:39;8.90;99.90
14119;DHT22;7138;49.246;9.100;2023-04-01T07:40:21;8.90;99.90
14119;DHT22;7138;49.246;9.100;2023-04-01T07:43:09;8.90;99.90
14119;DHT22;7138;49.246;9.100;2023-04-01T07:45:53;8.80;99.90
14119;DHT22;7138;49.246;9.100;2023-04-01T07:48:31;8.80;99.90
14119;DHT22;7138;49.246;9.100;2023-04-01T07:51:02;8.80;99.90
14119;DHT22;7138;49.246;9.100;2023-04-01T07:53:37;8.80;99.90
14119;DHT22;7138;49.246;9.100;2023-04-01T07:56:16;8.80;99.90
14119;DHT22;7138;49.246;9.100;2023-04-01T07:58:58;8.90;99.90
14119;DHT22;7138;49.246;9.100;2023-04-01T08:01:39;8.80;99.90
14119;DHT22;7138;49.246;9.100;2023-04-01T08:04:25;8.80;99.90
14119;DHT22;7138;49.246;9.100;2023-04-01T08:07:05;8.70;99.90
14119;DHT22;7138;49.246;9.100;2023-04-01T08:09:43;8.70;99.90
14119;DHT22;7138;49.246;9.100;2023-04-01T08:12:24;8.70;99.90
14119;DHT22;7138;49.246;9.100;2023-04-01T08:15:07;8.70;99.90
14119;DHT22;7138;49.246;9.100;2023-04-01T08:17:47;8.70;99.90
14119;DHT22;7138;49.246;9.100;2023-04-01T08:20:28;8.80;99.90
14119;DHT22;7138;49.246;9.100;2023-04-01T08:23:05;8.80;99.90
14119;DHT22;7138;49.246;9.100;2023-04-01T08:25:39;8.80;99.90
14119;DHT22;7138;49.246;9.100;2023-04-01T08:28:16;8.80;99.90
14119;DHT22;7138;49.246;9.100;2023-04-01T08:30:50;8.80;99.90
14119;DHT22;7138;49.246;9.100;2023-04-01T08:33:24;8.80;99.90
14119;DHT22;7138;49.246;9.100;2023-04-01T08:35:56;8.80;99.90
14119;DHT22;7138;49.246;9.100;2023-04-01T08:38:30;8.90;99.90
14119;DHT22;7138;49.246;9.100;2023-04-01T08:41:00;8.80;99.90
14119;DHT22;7138;49.246;9.100;2023-04-01T08:44:10;8.80;99.90
14119;DHT22;7138;49.246;9.100;2023-04-01T08:47:24;8.70;99.90
14119;DHT22;7138;49.246;9.100;2023-04-01T08:50:12;8.80;99.90
14119;DHT22;7138;49.246;9.100;2023-04-01T08:52:59;8.90;99.90
14119;DHT22;7138;49.246;9.100;2023-04-01T08:55:38;8.90;99.90
14119;DHT22;7138;49.246;9.100;2023-04-01T08:58:37;8.90;99.90
14119;DHT22;7138;49.246;9.100;2023-04-01T09:01:59;9.00;99.90
14119;DHT22;7138;49.246;9.100;2023-04-01T09:04:55;9.10;99.90
14119;DHT22;7138;49.246;9.100;2023-04-01T09:07:42;9.10;99.90
14119;DHT22;7138;49.246;9.100;2023-04-01T09:10:38;9.10;99.90
14119;DHT22;7138;49.246;9.100;2023-04-01T09:13:49;9.20;99.90
14119;DHT22;7138;49.246;9.100;2023-04-01T09:20:27;9.10;99.90
14119;DHT22;7138;49.246;9.100;2023-04-01T09:23:35;9.10;99.90
14119;DHT22;7138;49.246;9.100;2023-04-01T09:26:31;9.00;99.90
14119;DHT22;7138;49.246;9.100;2023-04-01T09:29:20;9.00;99.90
14119;DHT22;7138;49.246;9.100;2023-04-01T09:32:22;8.90;99.90
14119;DHT22;7138;49.246;9.100;2023-04-01T09:35:20;8.90;99.90
14119;DHT22;7138;49.246;9.100;2023-04-01T09:37:53;8.90;99.90
14119;DHT22;7138;49.246;9.100;2023-04-01T09:40:37;8.90;99.90
14119;DHT22;7138;49.246;9.100;2023-04-01T09:43:27;8.90;99.90
14119;DHT22;7138;49.246;9.100;2023-04-01T09:46:08;8.90;99.90
14119;DHT22;7138;49.246;9.100;2023-04-01T09:52:19;9.00;99.90
14119;DHT22;7138;49.246;9.100;2023-04-01T09:55:04;9.20;99.90
14119;DHT22;7138;49.246;9.100;2023-04-01T10:01:34;9.30;99.90
14119;DHT22;7138;49.246;9.100;2023-04-01T10:04:35;9.40;99.90
14119;DHT22;7138;49.246;9.100;2023-04-01T10:08:06;9.40;99.90
14119;DHT22;7138;49.246;9.100;2023-04-01T10:14:24;9.40;99.90
14119;DHT22;7138;49.246;9.100;2023-04-01T10:17:40;9.30;99.90
14119;DHT22;7138;49.246;9.100;2023-04-01T10:20:39;9.30;99.90
14119;DHT22;7138;49.246;9.100;2023-04-01T10:23:39;9.40;99.90
14119;DHT22;7138;49.246;9.100;2023-04-01T10:36:50;9.30;99.90
14119;DHT22;7138;49.246;9.100;2023-04-01T10:43:11;9.20;99.90
14119;DHT22;7138;49.246;9.100;2023-04-01T10:46:26;9.20;99.90
14119;DHT22;7138;49.246;9.100;2023-04-01T10:49:41;9.30;99.90
14119;DHT22;7138;49.246;9.100;2023-04-01T10:52:45;9.30;99.90
14119;DHT22;7138;49.246;9.100;2023-04-01T10:55:44;9.30;99.90
14119;DHT22;7138;49.246;9.100;2023-04-01T11:02:38;9.40;99.90
14119;DHT22;7138;49.246;9.100;2023-04-01T11:09:37;9.30;99.90
14119;DHT22;7138;49.246;9.100;2023-04-01T11:13:14;9.30;99.90
14119;DHT22;7138;49.246;9.100;2023-04-01T11:16:18;9.40;99.90
14119;DHT22;7138;49.246;9.100;2023-04-01T11:19:19;9.50;99.90
14119;DHT22;7138;49.246;9.100;2023-04-01T11:22:29;9.40;99.90
14119;DHT22;7138;49.246;9.100;2023-04-01T11:25:24;9.20;99.90
14119;DHT22;7138;49.246;9.100;2023-04-01T11:28:24;9.30;99.90
14119;DHT22;7138;49.246;9.100;2023-04-01T11:31:11;9.30;99.90
14119;DHT22;7138;49.246;9.100;2023-04-01T11:33:55;9.30;99.90
14119;DHT22;7138;49.246;9.100;2023-04-01T11:36:37;9.20;99.90
14119;DHT22;7138;49.246;9.100;2023-04-01T11:39:20;9.20;99.90
14119;DHT22;7138;49.246;9.100;2023-04-01T11:42:04;9.20;99.90
14119;DHT22;7138;49.246;9.100;2023-04-01T11:44:45;9.20;99.90
14119;DHT22;7138;49.246;9.100;2023-04-01T11:47:25;9.20;99.90
14119;DHT22;7138;49.246;9.100;2023-04-01T11:50:20;9.20;99.90
14119;DHT22;7138;49.246;9.100;2023-04-01T11:53:03;9.00;99.90
14119;DHT22;7138;49.246;9.100;2023-04-01T11:55:47;9.00;99.90
14119;DHT22;7138;49.246;9.100;2023-04-01T12:01:47;9.00;99.90
14119;DHT22;7138;49.246;9.100;2023-04-01T12:04:53;9.00;99.90
14119;DHT22;7138;49.246;9.100;2023-04-01T12:07:40;9.10;99.90
14119;DHT22;7138;49.246;9.100;2023-04-01T12:10:19;9.20;99.90
14119;DHT22;7138;49.246;9.100;2023-04-01T12:12:57;9.20;99.90
14119;DHT22;7138;49.246;9.100;2023-04-01T12:15:36;9.20;99.90
14119;DHT22;7138;49.246;9.100;2023-04-01T12:18:16;9.30;99.90
14119;DHT22;7138;49.246;9.100;2023-04-01T12:20:50;9.40;99.90
14119;DHT22;7138;49.246;9.100;2023-04-01T12:23:42;9.50;99.90
14119;DHT22;7138;49.246;9.100;2023-04-01T12:26:41;9.70;99.90
14119;DHT22;7138;49.246;9.100;2023-04-01T12:29:28;9.60;99.90
14119;DHT22;7138;49.246;9.100;2023-04-01T12:32:17;9.70;99.90
14119;DHT22;7138;49.246;9.100;2023-04-01T12:35:01;9.60;99.90
14119;DHT22;7138;49.246;9.100;2023-04-01T12:37:50;9.50;99.90
14119;DHT22;7138;49.246;9.100;2023-04-01T12:40:35;9.50;99.90
14119;DHT22;7138;49.246;9.100;2023-04-01T12:43:31;9.60;99.90
14119;DHT22;7138;49.246;9.100;2023-04-01T12:46:15;9.50;99.90
14119;DHT22;7138;49.246;9.100;2023-04-01T12:49:16;9.40;99.90
14119;DHT22;7138;49.246;9.100;2023-04-01T12:52:08;9.40;99.90
14119;DHT22;7138;49.246;9.100;2023-04-01T12:54:57;9.50;99.90
14119;DHT22;7138;49.246;9.100;2023-04-01T12:58:02;9.60;99.90
14119;DHT22;7138;49.246;9.100;2023-04-01T13:01:03;9.70;99.90
14119;DHT22;7138;49.246;9.100;2023-04-01T13:10:15;9.80;99.90
14119;DHT22;7138;49.246;9.100;2023-04-01T13:13:01;10.00;99.90
14119;DHT22;7138;49.246;9.100;2023-04-01T13:15:44;9.80;99.90
14119;DHT22;7138;49.246;9.100;2023-04-01T13:18:20;9.90;99.90
14119;DHT22;7138;49.246;9.100;2023-04-01T13:21:03;9.70;99.90
14119;DHT22;7138;49.246;9.100;2023-04-01T13:23:41;9.70;99.90
14119;DHT22;7138;49.246;9.100;2023-04-01T13:26:28;9.70;99.90
14119;DHT22;7138;49.246;9.100;2023-04-01T13:29:04;9.60;99.90
14119;DHT22;7138;49.246;9.100;2023-04-01T13:31:47;9.60;99.90
14119;DHT22;7138;49.246;9.100;2023-04-01T13:34:32;9.80;99.90
14119;DHT22;7138;49.246;9.100;2023-04-01T13:37:18;9.70;99.90
14119;DHT22;7138;49.246;9.100;2023-04-01T13:40:21;9.70;99.90
14119;DHT22;7138;49.246;9.100;2023-04-01T13:42:59;9.70;99.90
14119;DHT22;7138;49.246;9.100;2023-04-01T13:45:34;9.80;99.90
14119;DHT22;7138;49.246;9.100;2023-04-01T13:48:53;9.70;99.90
14119;DHT22;7138;49.246;9.100;2023-04-01T13:51:52;9.80;99.90
14119;DHT22;7138;49.246;9.100;2023-04-01T13:54:58;9.90;99.90
14119;DHT22;7138;49.246;9.100;2023-04-01T13:57:52;9.80;99.90
14119;DHT22;7138;49.246;9.100;2023-04-01T14:00:38;9.70;99.90
14119;DHT22;7138;49.246;9.100;2023-04-01T14:03:27;9.70;99.90
14119;DHT22;7138;49.246;9.100;2023-04-01T14:06:06;9.70;99.90
14119;DHT22;7138;49.246;9.100;2023-04-01T14:12:06;9.80;99.90
14119;DHT22;7138;49.246;9.100;2023-04-01T14:14:51;9.80;99.90
14119;DHT22;7138;49.246;9.100;2023-04-01T14:17:41;9.80;99.90
14119;DHT22;7138;49.246;9.100;2023-04-01T14:20:27;9.70;99.90
14119;DHT22;7138;49.246;9.100;2023-04-01T14:23:15;9.60;99.90
14119;DHT22;7138;49.246;9.100;2023-04-01T14:26:13;9.50;99.90
14119;DHT22;7138;49.246;9.100;2023-04-01T14:29:02;9.60;99.90
14119;DHT22;7138;49.246;9.100;2023-04-01T14:31:59;9.40;99.90
14119;DHT22;7138;49.246;9.100;2023-04-01T14:34:44;9.40;99.90
14119;DHT22;7138;49.246;9.100;2023-04-01T14:37:40;9.30;99.90
14119;DHT22;7138;49.246;9.100;2023-04-01T14:40:27;9.30;99.90
14119;DHT22;7138;49.246;9.100;2023-04-01T14:43:20;9.30;99.90
14119;DHT22;7138;49.246;9.100;2023-04-01T14:49:17;9.40;99.90
14119;DHT22;7138;49.246;9.100;2023-04-01T14:51:47;9.50;99.90
14119;DHT22;7138;49.246;9.100;2023-04-01T14:54:17;9.50;99.90
14119;DHT22;7138;49.246;9.100;2023-04-01T14:56:50;9.60;99.90
14119;DHT22;7138;49.246;9.100;2023-04-01T14:59:27;9.60;99.90
14119;DHT22;7138;49.246;9.100;2023-04-01T15:02:00;9.60;99.90
14119;DHT22;7138;49.246;9.100;2023-04-01T15:04:46;9.60;99.90
14119;DHT22;7138;49.246;9.100;2023-04-01T15:14:07;9.80;99.90
14119;DHT22;7138;49.246;9.100;2023-04-01T15:16:59;9.80;99.90
14119;DHT22;7138;49.246;9.100;2023-04-01T15:19:41;9.70;99.90
14119;DHT22;7138;49.246;9.100;2023-04-01T15:22:43;9.70;99.90
14119;DHT22;7138;49.246;9.100;2023-04-01T15:25:27;9.70;99.90
14119;DHT22;7138;49.246;9.100;2023-04-01T15:28:08;9.70;99.90
14119;DHT22;7138;49.246;9.100;2023-04-01T15:30:49;9.60;99.90
14119;DHT22;7138;49.246;9.100;2023-04-01T15:33:33;9.60;99.90
14119;DHT22;7138;49.246;9.100;2023-04-01T15:36:18;9.60;99.90
14119;DHT22;7138;49.246;9.100;2023-04-01T15:38:59;9.60;99.90
14119;DHT22;7138;49.246;9.100;2023-04-01T15:41:41;9.60;99.90
14119;DHT22;7138;49.246;9.100;2023-04-01T15:44:42;9.70;99.90
14119;DHT22;7138;49.246;9.100;2023-04-01T15:47:36;9.70;99.90
14119;DHT22;7138;49.246;9.100;2023-04-01T15:53:35;9.70;99.90
14119;DHT22;7138;49.246;9.100;2023-04-01T15:56:25;9.60;99.90
14119;DHT22;7138;49.246;9.100;2023-04-01T15:59:04;9.50;99.90
14119;DHT22;7138;49.246;9.100;2023-04-01T16:01:50;9.60;99.90
14119;DHT22;7138;49.246;9.100;2023-04-01T16:04:36;9.60;99.90
14119;DHT22;7138;49.246;9.100;2023-04-01T16:10:44;9.70;99.90
14119;DHT22;7138;49.246;9.100;2023-04-01T16:13:30;9.60;99.90
14119;DHT22;7138;49.246;9.100;2023-04-01T16:16:17;9.60;99.90
14119;DHT22;7138;49.246;9.100;2023-04-01T16:19:16;9.60;99.90
14119;DHT22;7138;49.246;9.100;2023-04-01T16:22:18;9.60;99.90
14119;DHT22;7138;49.246;9.100;2023-04-01T16:24:52;9.60;99.90
14119;DHT22;7138;49.246;9.100;2023-04-01T16:27:29;9.60;99.90
14119;DHT22;7138;49.246;9.100;2023-04-01T16:30:26;9.60;99.90
14119;DHT22;7138;49.246;9.100;2023-04-01T16:33:03;9.70;99.90
14119;DHT22;7138;49.246;9.100;2023-04-01T16:35:41;9.70;99.90
14119;DHT22;7138;49.246;9.100;2023-04-01T16:38:18;9.70;99.90
14119;DHT22;7138;49.246;9.100;2023-04-01T16:43:45;9.70;99.90
14119;DHT22;7138;49.246;9.100;2023-04-01T16:46:32;9.70;99.90
14119;DHT22;7138;49.246;9.100;2023-04-01T16:49:31;9.60;99.90
14119;DHT22;7138;49.246;9.100;2023-04-01T16:52:16;9.60;99.90
14119;DHT22;7138;49.246;9.100;2023-04-01T16:54:57;9.50;99.90
14119;DHT22;7138;49.246;9.100;2023-04-01T16:57:31;9.50;99.90
14119;DHT22;7138;49.246;9.100;2023-04-01T17:00:22;9.50;99.90
14119;DHT22;7138;49.246;9.100;2023-04-01T17:02:58;9.40;99.90
14119;DHT22;7138;49.246;9.100;2023-04-01T17:05:41;9.40;99.90
14119;DHT22;7138;49.246;9.100;2023-04-01T17:08:21;9.40;99.90
14119;DHT22;7138;49.246;9.100;2023-04-01T17:10:56;9.40;99.90
14119;DHT22;7138;49.246;9.100;2023-04-01T17:13:35;9.50;99.90
14119;DHT22;7138;49.246;9.100;2023-04-01T17:16:30;9.50;99.90
14119;DHT22;7138;49.246;9.100;2023-04-01T17:19:18;9.40;99.90
14119;DHT22;7138;49.246;9.100;2023-04-01T17:22:05;9.40;99.90
14119;DHT22;7138;49.246;9.100;2023-04-01T17:24:48;9.40;99.90
14119;DHT22;7138;49.246;9.100;2023-04-01T17:27:34;9.40;99.90
14119;DHT22;7138;49.246;9.100;2023-04-01T17:33:25;9.40;99.90
14119;DHT22;7138;49.246;9.100;2023-04-01T17:36:11;9.40;99.90
14119;DHT22;7138;49.246;9.100;2023-04-01T17:39:00;9.30;99.90
14119;DHT22;7138;49.246;9.100;2023-04-01T17:41:42;9.20;99.90
14119;DHT22;7138;49.246;9.100;2023-04-01T17:44:26;9.20;99.90
14119;DHT22;7138;49.246;9.100;2023-04-01T17:47:25;9.20;99.90
14119;DHT22;7138;49.246;9.100;2023-04-01T17:50:18;9.10;99.90
14119;DHT22;7138;49.246;9.100;2023-04-01T17:52:59;9.10;99.90
14119;DHT22;7138;49.246;9.100;2023-04-01T17:55:55;9.00;99.90
14119;DHT22;7138;49.246;9.100;2023-04-01T17:58:33;9.00;99.90
14119;DHT22;7138;49.246;9.100;2023-04-01T18:01:15;8.90;99.90
14119;DHT22;7138;49.246;9.100;2023-04-01T18:04:07;8.90;99.90
14119;DHT22;7138;49.246;9.100;2023-04-01T18:07:06;8.80;99.90
14119;DHT22;7138;49.246;9.100;2023-04-01T18:09:53;8.80;99.90
14119;DHT22;7138;49.246;9.100;2023-04-01T18:12:34;8.70;99.90
14119;DHT22;7138;49.246;9.100;2023-04-01T18:15:19;8.60;99.90
14119;DHT22;7138;49.246;9.100;2023-04-01T18:18:03;8.60;99.90
14119;DHT22;7138;49.246;9.100;2023-04-01T18:20:49;8.60;99.90
14119;DHT22;7138;49.246;9.100;2023-04-01T18:23:28;8.60;99.90
14119;DHT22;7138;49.246;9.100;2023-04-01T18:26:05;8.50;99.90
14119;DHT22;7138;49.246;9.100;2023-04-01T18:28:37;8.50;99.90
14119;DHT22;7138;49.246;9.100;2023-04-01T18:31:08;8.50;99.90
14119;DHT22;7138;49.246;9.100;2023-04-01T18:33:48;8.50;99.90
14119;DHT22;7138;49.246;9.100;2023-04-01T18:36:32;8.50;99.90
14119;DHT22;7138;49.246;9.100;2023-04-01T18:39:10;8.50;99.90
14119;DHT22;7138;49.246;9.100;2023-04-01T18:41:50;8.50;99.90